createdAt,value
2022-08-11T00:00:36.086Z,100450.19
2022-08-11T00:03:26.318Z,100488.19
2022-08-11T00:06:34.664Z,100487.66
2022-08-11T00:09:32.219Z,100495.44
2022-08-11T00:12:29.195Z,100485.81
2022-08-11T00:15:18.019Z,100477.78
2022-08-11T00:18:07.188Z,100483.22
2022-08-11T00:21:00.302Z,100492.41
2022-08-11T00:23:54.869Z,100493.94
2022-08-11T00:26:48.763Z,100491.91
2022-08-11T00:29:37.325Z,100493.63
2022-08-11T00:32:42.722Z,100486.44
2022-08-11T00:35:54.596Z,100494.47
2022-08-11T00:38:45.169Z,100495.38
2022-08-11T00:41:37.788Z,100506.66
2022-08-11T00:44:34.187Z,100501.94
2022-08-11T00:47:29.996Z,100504.66
2022-08-11T00:50:25.198Z,100499.69
2022-08-11T00:53:33.891Z,100509.72
2022-08-11T00:57:00.961Z,100501.63
2022-08-11T01:00:16.672Z,100495.72
2022-08-11T01:03:19.867Z,100501.75
2022-08-11T01:06:29.026Z,100498.38
2022-08-11T01:09:41.951Z,100499.81
2022-08-11T01:12:41.558Z,100502.22
2022-08-11T01:16:03.645Z,100501.44
2022-08-11T01:19:21.709Z,100442.53
2022-08-11T01:22:54.563Z,100500.41
2022-08-11T01:26:15.492Z,100506.50
2022-08-11T01:29:29.862Z,100505.22
2022-08-11T01:32:39.105Z,100503.16
2022-08-11T01:35:54.318Z,100265.03
2022-08-11T01:39:08.401Z,100499.72
2022-08-11T01:42:25.251Z,100498.41
2022-08-11T01:45:30.506Z,100499.16
2022-08-11T01:48:26.833Z,100503.97
2022-08-11T01:51:24.849Z,100501.25
2022-08-11T01:54:20.010Z,100501.75
2022-08-11T01:57:17.946Z,100502.09
2022-08-11T02:00:11.786Z,100498.44
2022-08-11T02:03:06.813Z,100492.94
2022-08-11T02:06:24.186Z,100497.97
2022-08-11T02:09:21.460Z,100501.16
2022-08-11T02:12:15.786Z,100491.25
2022-08-11T02:15:10.519Z,100489.84
2022-08-11T02:18:05.777Z,100496.81
2022-08-11T02:21:15.458Z,100498.22
2022-08-11T02:24:08.005Z,100493.63
2022-08-11T02:27:03.805Z,100495.28
2022-08-11T02:30:04.863Z,100487.47
2022-08-11T02:33:22.940Z,100498.09
2022-08-11T02:36:15.946Z,100495.03
2022-08-11T02:39:10.967Z,100480.31
2022-08-11T02:42:32.681Z,100455.59
2022-08-11T02:45:41.720Z,100458.88
2022-08-11T02:49:07.083Z,100487.38
2022-08-11T02:52:06.290Z,100486.25
2022-08-11T02:55:10.815Z,100493.34
2022-08-11T02:58:30.468Z,100488.38
2022-08-11T03:01:24.862Z,100483.78
2022-08-11T03:04:18.864Z,100484.00
2022-08-11T03:07:29.029Z,100482.72
2022-08-11T03:10:22.608Z,100485.47
2022-08-11T03:13:35.057Z,100490.63
2022-08-11T03:16:48.553Z,100476.59
2022-08-11T03:19:45.856Z,100497.81
2022-08-11T03:22:39.305Z,100480.22
2022-08-11T03:25:33.122Z,100495.81
2022-08-11T03:28:29.499Z,100504.78
2022-08-11T03:31:24.742Z,100500.59
2022-08-11T03:34:18.711Z,100496.75
2022-08-11T03:37:36.957Z,100502.16
2022-08-11T03:40:54.791Z,100497.91
2022-08-11T03:43:58.200Z,100500.50
2022-08-11T03:47:15.206Z,100512.44
2022-08-11T03:50:14.489Z,100513.75
2022-08-11T03:53:14.428Z,100504.34
2022-08-11T03:56:20.713Z,100522.53
2022-08-11T03:59:49.996Z,100505.72
2022-08-11T04:03:18.052Z,100504.09
2022-08-11T04:06:20.416Z,100520.13
2022-08-11T04:09:59.737Z,100510.66
2022-08-11T04:13:08.725Z,100510.13
2022-08-11T04:16:15.694Z,100518.66
2022-08-11T04:19:30.209Z,100515.34
2022-08-11T04:22:45.820Z,100503.91
2022-08-11T04:25:58.586Z,100513.25
2022-08-11T04:28:58.830Z,100516.41
2022-08-11T04:32:02.766Z,100491.19
2022-08-11T04:35:02.131Z,100506.66
2022-08-11T04:38:29.003Z,100507.47
2022-08-11T04:41:33.149Z,100513.09
2022-08-11T04:44:45.770Z,100522.09
2022-08-11T04:48:06.990Z,100506.25
2022-08-11T04:51:25.193Z,100523.28
2022-08-11T04:54:43.350Z,100520.88
2022-08-11T04:57:55.984Z,100517.56
2022-08-11T05:01:11.366Z,100522.97
2022-08-11T05:05:05.228Z,100520.34
2022-08-11T05:08:38.235Z,100532.13
2022-08-11T05:11:40.477Z,100529.78
2022-08-11T05:14:50.813Z,100499.88
2022-08-11T05:18:00.118Z,100526.53
2022-08-11T05:21:10.477Z,100533.63
2022-08-11T05:24:22.497Z,100507.97
2022-08-11T05:27:31.105Z,100522.94
2022-08-11T05:30:37.507Z,100528.75
2022-08-11T05:33:50.704Z,100527.47
2022-08-11T05:36:45.747Z,100524.31
2022-08-11T05:39:57.125Z,100532.09
2022-08-11T05:43:09.163Z,100527.41
2022-08-11T05:46:15.927Z,100531.56
2022-08-11T05:49:26.581Z,100543.47
2022-08-11T05:52:44.599Z,100546.97
2022-08-11T05:56:03.117Z,100545.97
2022-08-11T05:58:54.613Z,100548.28
2022-08-11T06:01:44.946Z,100542.19
2022-08-11T06:04:33.990Z,100543.44
2022-08-11T06:07:29.206Z,100553.25
2022-08-11T06:10:37.034Z,100549.72
2022-08-11T06:13:26.173Z,100545.25
2022-08-11T06:16:24.842Z,100552.88
2022-08-11T06:19:14.217Z,100546.81
2022-08-11T06:22:04.617Z,100538.00
2022-08-11T06:24:54.510Z,100551.09
2022-08-11T06:27:45.616Z,100552.16
2022-08-11T06:30:36.178Z,100552.38
2022-08-11T06:33:34.888Z,100548.47
2022-08-11T06:36:29.018Z,100554.25
2022-08-11T06:39:23.491Z,100551.78
2022-08-11T06:42:15.292Z,100524.06
2022-08-11T06:45:08.868Z,100560.84
2022-08-11T06:48:00.740Z,100560.50
2022-08-11T06:51:10.579Z,100561.91
2022-08-11T06:54:03.548Z,100559.81
2022-08-11T06:57:29.529Z,100554.38
2022-08-11T07:00:32.938Z,100562.59
2022-08-11T07:03:22.284Z,100559.38
2022-08-11T07:06:23.843Z,100472.97
2022-08-11T07:09:47.331Z,100561.56
2022-08-11T07:12:58.148Z,100567.31
2022-08-11T07:16:12.373Z,100565.41
2022-08-11T07:19:13.768Z,100558.50
2022-08-11T07:22:25.462Z,100564.16
2022-08-11T07:25:33.217Z,100558.34
2022-08-11T07:28:44.141Z,100566.72
2022-08-11T07:31:37.016Z,100554.41
2022-08-11T07:34:29.014Z,100562.59
2022-08-11T07:37:20.469Z,100553.56
2022-08-11T07:40:10.455Z,100512.94
2022-08-11T07:43:00.305Z,100547.88
2022-08-11T07:46:06.604Z,100547.50
2022-08-11T07:49:12.861Z,100545.09
2022-08-11T07:52:18.875Z,100547.78
2022-08-11T07:55:13.994Z,100541.34
2022-08-11T07:58:20.526Z,100533.16
2022-08-11T08:01:26.716Z,100548.56
2022-08-11T08:04:34.874Z,100538.16
2022-08-11T08:07:42.021Z,100521.97
2022-08-11T08:10:49.735Z,100532.03
2022-08-11T08:13:56.334Z,100541.84
2022-08-11T08:17:02.900Z,100535.19
2022-08-11T08:19:51.801Z,100541.53
2022-08-11T08:22:43.945Z,100551.22
2022-08-11T08:25:38.034Z,100546.59
2022-08-11T08:28:31.786Z,100547.56
2022-08-11T08:31:20.182Z,100538.22
2022-08-11T08:34:09.281Z,100547.81
2022-08-11T08:36:57.993Z,100547.88
2022-08-11T08:39:47.234Z,100540.16
2022-08-11T08:42:45.052Z,100552.47
2022-08-11T08:45:37.694Z,100549.91
2022-08-11T08:48:27.541Z,100540.72
2022-08-11T08:52:00.855Z,100542.75
2022-08-11T08:54:44.232Z,100551.97
2022-08-11T08:57:38.984Z,100541.44
2022-08-11T09:00:40.209Z,100549.16
2022-08-11T09:04:06.719Z,100545.31
2022-08-11T09:06:40.034Z,100509.59
2022-08-11T09:09:28.932Z,100547.63
2022-08-11T09:12:36.059Z,100549.63
2022-08-11T09:15:28.345Z,100542.88
2022-08-11T09:18:19.159Z,100496.22
2022-08-11T09:21:08.230Z,100547.34
2022-08-11T09:24:22.080Z,100545.00
2022-08-11T09:27:14.956Z,100536.44
2022-08-11T09:30:03.587Z,100540.97
2022-08-11T09:33:03.004Z,100543.00
2022-08-11T09:35:53.497Z,100533.78
2022-08-11T09:39:00.059Z,100537.03
2022-08-11T09:42:01.068Z,100532.13
2022-08-11T09:44:52.853Z,100539.50
2022-08-11T09:47:41.658Z,100549.78
2022-08-11T09:50:30.337Z,100543.75
2022-08-11T09:53:37.777Z,100535.34
2022-08-11T09:56:48.014Z,100548.47
2022-08-11T09:59:36.607Z,100547.81
2022-08-11T10:02:28.181Z,100529.81
2022-08-11T10:05:37.412Z,100537.09
2022-08-11T10:08:29.902Z,100532.69
2022-08-11T10:11:22.875Z,100531.31
2022-08-11T10:14:33.224Z,100527.56
2022-08-11T10:17:24.653Z,100505.72
2022-08-11T10:20:14.127Z,100509.69
2022-08-11T10:23:17.668Z,100519.41
2022-08-11T10:26:26.597Z,100506.50
2022-08-11T10:29:36.717Z,100500.59
2022-08-11T10:32:57.223Z,100487.59
2022-08-11T10:35:46.892Z,100484.59
2022-08-11T10:38:36.071Z,100477.44
2022-08-11T10:42:03.369Z,100484.47
2022-08-11T10:44:54.039Z,100473.91
2022-08-11T10:47:46.802Z,100495.66
2022-08-11T10:50:56.070Z,100483.31
2022-08-11T10:54:04.478Z,100483.16
2022-08-11T10:57:12.810Z,100483.31
2022-08-11T11:00:01.906Z,100472.38
2022-08-11T11:03:16.764Z,100473.72
2022-08-11T11:06:27.607Z,100454.22
2022-08-11T11:09:18.390Z,100456.59
2022-08-11T11:12:30.013Z,100461.94
2022-08-11T11:15:37.160Z,100448.78
2022-08-11T11:18:28.640Z,100446.75
2022-08-11T11:21:20.158Z,100451.25
2022-08-11T11:24:15.576Z,100429.75
2022-08-11T11:27:12.277Z,100446.06
2022-08-11T11:30:05.853Z,100438.53
2022-08-11T11:33:02.929Z,100445.06
2022-08-11T11:36:03.159Z,100438.25
2022-08-11T11:38:51.879Z,100418.66
2022-08-11T11:41:40.765Z,100426.47
2022-08-11T11:44:31.163Z,100440.25
2022-08-11T11:47:22.881Z,100427.53
2022-08-11T11:50:11.968Z,100411.50
2022-08-11T11:53:01.882Z,100410.03
2022-08-11T11:55:50.517Z,100408.94
2022-08-11T11:58:57.294Z,100407.72
2022-08-11T12:01:50.429Z,100413.81
2022-08-11T12:04:43.080Z,100402.13
2022-08-11T12:07:56.822Z,100376.72
2022-08-11T12:11:19.389Z,100401.69
2022-08-11T12:14:10.835Z,100398.19
2022-08-11T12:17:01.590Z,100391.53
2022-08-11T12:19:50.669Z,100396.13
2022-08-11T12:22:56.949Z,100392.22
2022-08-11T12:26:25.696Z,100386.44
2022-08-11T12:29:13.761Z,100392.59
2022-08-11T12:32:08.154Z,100380.53
2022-08-11T12:34:58.233Z,100374.19
2022-08-11T12:37:49.414Z,100378.81
2022-08-11T12:41:16.097Z,100374.00
2022-08-11T12:44:37.484Z,100376.88
2022-08-11T12:48:57.423Z,100358.31
2022-08-11T12:51:15.886Z,100356.94
2022-08-11T12:54:11.043Z,100346.38
2022-08-11T12:57:36.572Z,100356.09
2022-08-11T13:00:45.049Z,100348.97
2022-08-11T13:03:56.915Z,100358.97
2022-08-11T13:06:46.034Z,100336.59
2022-08-11T13:09:34.881Z,100340.22
2022-08-11T13:12:41.905Z,100323.31
2022-08-11T13:15:31.648Z,100321.00
2022-08-11T13:18:23.159Z,100336.34
2022-08-11T13:21:20.636Z,100326.47
2022-08-11T13:24:09.774Z,100319.91
2022-08-11T13:26:59.791Z,100313.44
2022-08-11T13:29:49.033Z,100323.44
2022-08-11T13:32:37.743Z,100317.75
2022-08-11T13:35:27.353Z,100273.47
2022-08-11T13:38:20.481Z,100317.13
2022-08-11T13:41:29.522Z,100314.38
2022-08-11T13:44:24.701Z,100313.44
2022-08-11T13:47:15.003Z,100308.34
2022-08-11T13:50:03.954Z,100308.47
2022-08-11T13:52:53.322Z,100292.88
2022-08-11T13:55:51.670Z,100271.25
2022-08-11T13:58:41.313Z,100284.75
2022-08-11T14:02:20.565Z,100287.22
2022-08-11T14:04:44.051Z,100271.06
2022-08-11T14:07:36.702Z,100287.31
2022-08-11T14:10:28.965Z,100272.19
2022-08-11T14:13:41.232Z,100276.06
2022-08-11T14:16:33.988Z,100264.00
2022-08-11T14:19:25.054Z,100263.25
2022-08-11T14:22:14.699Z,100263.69
2022-08-11T14:25:03.464Z,100254.66
2022-08-11T14:28:30.610Z,100140.91
2022-08-11T14:31:02.467Z,100261.22
2022-08-11T14:34:01.113Z,100256.97
2022-08-11T14:36:52.176Z,100251.50
2022-08-11T14:39:44.654Z,100250.91
2022-08-11T14:42:50.604Z,100235.03
2022-08-11T14:45:58.750Z,100240.09
2022-08-11T14:48:50.156Z,100236.63
2022-08-11T14:51:45.109Z,100244.88
2022-08-11T14:54:53.493Z,100219.56
2022-08-11T14:57:56.227Z,100228.13
2022-08-11T15:00:45.956Z,100230.94
2022-08-11T15:03:33.854Z,100226.13
2022-08-11T15:06:23.891Z,100221.66
2022-08-11T15:09:12.497Z,100214.69
2022-08-11T15:12:32.184Z,100220.66
2022-08-11T15:15:36.504Z,100235.50
2022-08-11T15:18:26.476Z,100224.13
2022-08-11T15:21:32.648Z,100231.53
2022-08-11T15:24:24.072Z,100216.16
2022-08-11T15:27:40.813Z,100211.19
2022-08-11T15:30:48.750Z,100206.28
2022-08-11T15:33:57.767Z,100204.75
2022-08-11T15:37:04.357Z,100190.28
2022-08-11T15:40:30.051Z,100185.75
2022-08-11T15:43:40.200Z,100199.41
2022-08-11T15:46:31.869Z,100193.38
2022-08-11T15:49:24.233Z,100196.50
2022-08-11T15:52:37.864Z,100179.19
2022-08-11T15:55:32.303Z,100198.28
2022-08-11T15:58:38.896Z,100178.19
2022-08-11T16:01:46.697Z,100173.34
2022-08-11T16:04:36.547Z,100177.13
2022-08-11T16:07:27.947Z,100174.84
2022-08-11T16:10:21.533Z,100174.16
2022-08-11T16:13:31.700Z,100146.06
2022-08-11T16:16:20.376Z,100173.09
2022-08-11T16:19:10.483Z,100180.47
2022-08-11T16:21:59.402Z,100172.22
2022-08-11T16:27:05.339Z,100180.94
2022-08-11T16:27:59.594Z,100169.72
2022-08-11T16:30:49.894Z,100156.88
2022-08-11T16:33:51.178Z,100173.91
2022-08-11T16:36:57.759Z,100178.03
2022-08-11T16:39:48.358Z,100169.53
2022-08-11T16:43:08.611Z,100170.13
2022-08-11T16:46:20.851Z,100164.78
2022-08-11T16:49:12.572Z,100175.41
2022-08-11T16:52:03.924Z,100141.34
2022-08-11T16:54:53.033Z,100156.13
2022-08-11T16:57:59.811Z,100155.22
2022-08-11T17:00:49.594Z,100114.25
2022-08-11T17:04:03.673Z,100163.50
2022-08-11T17:07:23.772Z,100130.56
2022-08-11T17:10:52.755Z,100143.72
2022-08-11T17:13:48.388Z,100150.13
2022-08-11T17:16:38.918Z,100146.56
2022-08-11T17:20:38.772Z,100140.38
2022-08-11T17:23:00.389Z,100132.94
2022-08-11T17:25:59.156Z,100145.19
2022-08-11T17:28:56.261Z,100141.31
2022-08-11T17:32:06.604Z,100116.31
2022-08-11T17:35:16.561Z,100142.50
2022-08-11T17:38:07.299Z,100137.50
2022-08-11T17:41:23.094Z,100146.44
2022-08-11T17:44:29.972Z,100144.69
2022-08-11T17:47:36.729Z,100147.34
2022-08-11T17:50:27.432Z,100140.69
2022-08-11T17:53:33.768Z,100143.44
2022-08-11T17:56:40.303Z,100141.34
2022-08-11T17:59:49.157Z,100145.59
2022-08-11T18:02:57.374Z,100151.13
2022-08-11T18:05:49.234Z,100145.78
2022-08-11T18:08:58.656Z,100153.41
2022-08-11T18:12:10.819Z,100160.66
2022-08-11T18:15:19.465Z,100153.84
2022-08-11T18:18:25.436Z,100150.59
2022-08-11T18:21:34.887Z,100158.03
2022-08-11T18:24:42.592Z,100165.34
2022-08-11T18:27:50.325Z,100167.53
2022-08-11T18:31:03.816Z,100162.31
2022-08-11T18:34:11.424Z,100171.34
2022-08-11T18:37:24.745Z,100160.63
2022-08-11T18:40:38.000Z,100167.72
2022-08-11T18:43:45.649Z,100162.81
2022-08-11T18:46:55.343Z,100174.72
2022-08-11T18:50:05.178Z,100176.91
2022-08-11T18:53:13.548Z,100169.59
2022-08-11T18:56:20.202Z,100171.94
2022-08-11T18:59:27.266Z,100148.44
2022-08-11T19:02:48.641Z,100176.19
2022-08-11T19:06:06.188Z,100185.91
2022-08-11T19:09:27.772Z,100169.91
2022-08-11T19:12:33.956Z,100188.25
2022-08-11T19:15:41.320Z,100193.34
2022-08-11T19:18:49.133Z,100192.66
2022-08-11T19:21:55.516Z,100188.03
2022-08-11T19:25:03.400Z,100180.16
2022-08-11T19:28:10.226Z,100194.25
2022-08-11T19:31:16.806Z,100188.47
2022-08-11T19:34:24.056Z,100187.53
2022-08-11T19:37:31.319Z,100194.94
2022-08-11T19:40:39.291Z,100146.25
2022-08-11T19:43:46.016Z,100194.06
2022-08-11T19:46:52.168Z,100197.53
2022-08-11T19:49:59.224Z,100200.38
2022-08-11T19:53:17.301Z,100192.56
2022-08-11T19:56:25.868Z,100175.38
2022-08-11T19:59:32.157Z,100193.75
2022-08-11T20:02:38.542Z,100203.78
2022-08-11T20:05:52.734Z,100198.13
2022-08-11T20:09:03.287Z,100193.66
2022-08-11T20:12:15.374Z,100190.25
2022-08-11T20:15:25.392Z,100192.03
2022-08-11T20:18:32.539Z,100199.22
2022-08-11T20:21:39.467Z,100198.75
2022-08-11T20:24:46.529Z,100177.00
2022-08-11T20:27:55.733Z,100198.31
2022-08-11T20:31:03.969Z,100195.88
2022-08-11T20:34:10.031Z,100188.03
2022-08-11T20:37:17.049Z,100200.09
2022-08-11T20:40:24.216Z,100200.47
2022-08-11T20:44:08.033Z,100205.66
2022-08-11T20:47:00.549Z,100211.97
2022-08-11T20:50:07.453Z,100210.88
2022-08-11T20:53:13.767Z,100212.28
2022-08-11T20:56:28.956Z,100208.50
2022-08-11T20:59:49.309Z,100212.94
2022-08-11T21:03:02.486Z,100218.66
2022-08-11T21:06:11.127Z,100218.41
2022-08-11T21:09:19.869Z,100215.94
2022-08-11T21:12:28.834Z,100225.50
2022-08-11T21:15:39.184Z,100216.22
2022-08-11T21:19:03.719Z,100216.78
2022-08-11T21:22:10.164Z,100216.75
2022-08-11T21:25:17.918Z,100214.03
2022-08-11T21:28:26.837Z,100209.66
2022-08-11T21:31:34.832Z,100218.41
2022-08-11T21:34:43.191Z,100221.91
2022-08-11T21:37:50.510Z,100219.19
2022-08-11T21:40:59.001Z,100224.63
2022-08-11T21:44:05.991Z,100213.94
2022-08-11T21:47:21.394Z,100210.91
2022-08-11T21:50:42.811Z,100190.94
2022-08-11T21:53:49.659Z,100207.47
2022-08-11T21:56:56.133Z,100202.84
2022-08-11T22:00:06.259Z,100217.56
2022-08-11T22:03:14.162Z,100213.53
2022-08-11T22:06:20.359Z,100209.97
2022-08-11T22:09:27.480Z,100217.53
2022-08-11T22:12:36.446Z,100212.63
2022-08-11T22:15:44.895Z,100218.03
2022-08-11T22:18:53.165Z,100216.91
2022-08-11T22:22:04.055Z,100217.97
2022-08-11T22:25:16.714Z,100216.78
2022-08-11T22:28:24.832Z,100204.13
2022-08-11T22:31:31.074Z,100175.41
2022-08-11T22:34:44.991Z,100199.59
2022-08-11T22:37:59.561Z,100199.84
2022-08-11T22:41:06.582Z,100200.22
2022-08-11T22:44:12.780Z,100200.56
2022-08-11T22:47:22.190Z,100197.56
2022-08-11T22:50:30.711Z,100194.19
2022-08-11T22:53:57.607Z,100195.75
2022-08-11T22:57:03.498Z,100195.22
2022-08-11T23:00:10.199Z,100207.59
2022-08-11T23:03:34.277Z,100209.00
2022-08-11T23:06:44.746Z,100202.22
2022-08-11T23:09:51.323Z,100214.31
2022-08-11T23:12:57.516Z,100203.19
2022-08-11T23:16:03.648Z,100205.38
2022-08-11T23:19:10.088Z,100203.59
2022-08-11T23:22:18.435Z,100209.88
2022-08-11T23:25:25.304Z,100200.28
2022-08-11T23:28:33.140Z,100203.50
2022-08-11T23:31:51.286Z,100209.78
2022-08-11T23:35:04.091Z,100210.03
2022-08-11T23:38:12.638Z,100207.84
2022-08-11T23:41:19.349Z,100086.03
2022-08-11T23:44:27.126Z,100196.25
2022-08-11T23:47:34.482Z,100205.34
2022-08-11T23:50:56.965Z,100203.63
2022-08-11T23:54:07.934Z,100217.47
2022-08-11T23:57:13.963Z,100207.03
